sensor_id;sensor_type;location;lat;lon;timestamp;P1;durP1;ratioP1;P2;durP2;ratioP2
35917;SDS011;22011;59.912;30.300;2023-08-06T00:01:26;10.60;;;8.43;;
35917;SDS011;22011;59.912;30.300;2023-08-06T00:03:53;10.85;;;8.30;;
35917;SDS011;22011;59.912;30.300;2023-08-06T00:06:21;10.57;;;8.25;;
35917;SDS011;22011;59.912;30.300;2023-08-06T00:08:49;9.40;;;8.50;;
35917;SDS011;22011;59.912;30.300;2023-08-06T00:11:16;9.43;;;8.50;;
35917;SDS011;22011;59.912;30.300;2023-08-06T00:13:44;11.55;;;9.63;;
35917;SDS011;22011;59.912;30.300;2023-08-06T00:16:13;12.75;;;9.18;;
35917;SDS011;22011;59.912;30.300;2023-08-06T00:18:41;9.65;;;8.65;;
35917;SDS011;22011;59.912;30.300;2023-08-06T00:21:09;12.35;;;8.15;;
35917;SDS011;22011;59.912;30.300;2023-08-06T00:23:38;11.02;;;8.60;;
35917;SDS011;22011;59.912;30.300;2023-08-06T00:26:05;9.85;;;8.85;;
35917;SDS011;22011;59.912;30.300;2023-08-06T00:28:33;16.30;;;8.63;;
35917;SDS011;22011;59.912;30.300;2023-08-06T00:31:01;10.00;;;8.27;;
35917;SDS011;22011;59.912;30.300;2023-08-06T00:33:30;10.13;;;8.30;;
35917;SDS011;22011;59.912;30.300;2023-08-06T00:35:57;11.10;;;7.83;;
35917;SDS011;22011;59.912;30.300;2023-08-06T00:38:25;10.68;;;8.05;;
35917;SDS011;22011;59.912;30.300;2023-08-06T00:40:53;12.27;;;8.82;;
35917;SDS011;22011;59.912;30.300;2023-08-06T00:43:20;10.07;;;7.93;;
35917;SDS011;22011;59.912;30.300;2023-08-06T00:45:48;11.88;;;8.23;;
35917;SDS011;22011;59.912;30.300;2023-08-06T00:48:16;10.00;;;8.43;;
35917;SDS011;22011;59.912;30.300;2023-08-06T00:50:45;11.52;;;9.43;;
35917;SDS011;22011;59.912;30.300;2023-08-06T00:53:13;10.45;;;7.90;;
35917;SDS011;22011;59.912;30.300;2023-08-06T00:55:41;13.10;;;8.18;;
35917;SDS011;22011;59.912;30.300;2023-08-06T00:58:09;9.80;;;8.07;;
35917;SDS011;22011;59.912;30.300;2023-08-06T01:00:37;9.48;;;8.05;;
35917;SDS011;22011;59.912;30.300;2023-08-06T01:03:05;11.95;;;8.52;;
35917;SDS011;22011;59.912;30.300;2023-08-06T01:05:33;13.55;;;8.43;;
35917;SDS011;22011;59.912;30.300;2023-08-06T01:08:08;12.10;;;9.05;;
35917;SDS011;22011;59.912;30.300;2023-08-06T01:10:49;11.88;;;8.93;;
35917;SDS011;22011;59.912;30.300;2023-08-06T01:13:30;14.10;;;9.18;;
35917;SDS011;22011;59.912;30.300;2023-08-06T01:16:05;10.40;;;8.88;;
35917;SDS011;22011;59.912;30.300;2023-08-06T01:18:33;10.65;;;9.57;;
35917;SDS011;22011;59.912;30.300;2023-08-06T01:21:06;11.07;;;8.40;;
35917;SDS011;22011;59.912;30.300;2023-08-06T01:23:34;9.37;;;8.40;;
35917;SDS011;22011;59.912;30.300;2023-08-06T01:26:02;12.13;;;9.18;;
35917;SDS011;22011;59.912;30.300;2023-08-06T01:28:40;10.63;;;9.25;;
35917;SDS011;22011;59.912;30.300;2023-08-06T01:31:13;11.05;;;9.35;;
35917;SDS011;22011;59.912;30.300;2023-08-06T01:33:45;11.73;;;9.70;;
35917;SDS011;22011;59.912;30.300;2023-08-06T01:36:16;12.63;;;10.18;;
35917;SDS011;22011;59.912;30.300;2023-08-06T01:38:46;17.13;;;11.35;;
35917;SDS011;22011;59.912;30.300;2023-08-06T01:41:13;14.82;;;10.63;;
35917;SDS011;22011;59.912;30.300;2023-08-06T01:43:41;14.02;;;11.13;;
35917;SDS011;22011;59.912;30.300;2023-08-06T01:46:08;14.35;;;11.68;;
35917;SDS011;22011;59.912;30.300;2023-08-06T01:48:36;13.95;;;11.45;;
35917;SDS011;22011;59.912;30.300;2023-08-06T01:51:04;11.50;;;10.15;;
35917;SDS011;22011;59.912;30.300;2023-08-06T01:53:33;14.88;;;10.85;;
35917;SDS011;22011;59.912;30.300;2023-08-06T01:56:01;11.40;;;10.25;;
35917;SDS011;22011;59.912;30.300;2023-08-06T01:58:29;19.35;;;10.23;;
35917;SDS011;22011;59.912;30.300;2023-08-06T02:00:56;13.15;;;9.73;;
35917;SDS011;22011;59.912;30.300;2023-08-06T02:03:24;11.25;;;9.10;;
35917;SDS011;22011;59.912;30.300;2023-08-06T02:05:51;11.90;;;9.85;;
35917;SDS011;22011;59.912;30.300;2023-08-06T02:08:19;11.55;;;9.77;;
35917;SDS011;22011;59.912;30.300;2023-08-06T02:10:48;12.82;;;9.25;;
35917;SDS011;22011;59.912;30.300;2023-08-06T02:13:15;18.75;;;10.35;;
35917;SDS011;22011;59.912;30.300;2023-08-06T02:15:43;13.85;;;10.20;;
35917;SDS011;22011;59.912;30.300;2023-08-06T02:18:13;14.23;;;11.20;;
35917;SDS011;22011;59.912;30.300;2023-08-06T02:20:41;15.18;;;10.13;;
35917;SDS011;22011;59.912;30.300;2023-08-06T02:23:09;17.17;;;10.95;;
35917;SDS011;22011;59.912;30.300;2023-08-06T02:25:37;15.73;;;10.35;;
35917;SDS011;22011;59.912;30.300;2023-08-06T02:28:06;14.60;;;10.48;;
35917;SDS011;22011;59.912;30.300;2023-08-06T02:30:33;16.93;;;9.53;;
35917;SDS011;22011;59.912;30.300;2023-08-06T02:33:01;12.02;;;9.55;;
35917;SDS011;22011;59.912;30.300;2023-08-06T02:35:29;12.75;;;9.02;;
35917;SDS011;22011;59.912;30.300;2023-08-06T02:37:56;13.50;;;9.55;;
35917;SDS011;22011;59.912;30.300;2023-08-06T02:40:24;12.38;;;9.82;;
35917;SDS011;22011;59.912;30.300;2023-08-06T02:42:51;13.82;;;9.20;;
35917;SDS011;22011;59.912;30.300;2023-08-06T02:45:21;13.68;;;9.55;;
35917;SDS011;22011;59.912;30.300;2023-08-06T02:47:49;14.23;;;8.98;;
35917;SDS011;22011;59.912;30.300;2023-08-06T02:50:16;15.23;;;10.63;;
35917;SDS011;22011;59.912;30.300;2023-08-06T02:52:44;13.57;;;9.48;;
35917;SDS011;22011;59.912;30.300;2023-08-06T02:55:12;17.23;;;10.00;;
35917;SDS011;22011;59.912;30.300;2023-08-06T02:57:43;14.55;;;9.68;;
35917;SDS011;22011;59.912;30.300;2023-08-06T03:00:11;14.40;;;10.00;;
35917;SDS011;22011;59.912;30.300;2023-08-06T03:02:41;12.02;;;9.93;;
35917;SDS011;22011;59.912;30.300;2023-08-06T03:05:32;13.25;;;10.18;;
35917;SDS011;22011;59.912;30.300;2023-08-06T03:08:00;17.50;;;10.27;;
35917;SDS011;22011;59.912;30.300;2023-08-06T03:10:29;14.65;;;9.95;;
35917;SDS011;22011;59.912;30.300;2023-08-06T03:13:00;14.93;;;11.27;;
35917;SDS011;22011;59.912;30.300;2023-08-06T03:15:28;17.52;;;11.05;;
35917;SDS011;22011;59.912;30.300;2023-08-06T03:17:57;17.75;;;10.85;;
35917;SDS011;22011;59.912;30.300;2023-08-06T03:20:25;13.73;;;9.73;;
35917;SDS011;22011;59.912;30.300;2023-08-06T03:22:53;15.30;;;9.63;;
35917;SDS011;22011;59.912;30.300;2023-08-06T03:25:20;14.07;;;9.75;;
35917;SDS011;22011;59.912;30.300;2023-08-06T03:27:49;11.57;;;8.90;;
35917;SDS011;22011;59.912;30.300;2023-08-06T03:30:18;11.07;;;8.27;;
35917;SDS011;22011;59.912;30.300;2023-08-06T03:32:48;9.55;;;7.55;;
35917;SDS011;22011;59.912;30.300;2023-08-06T03:35:19;13.77;;;7.57;;
35917;SDS011;22011;59.912;30.300;2023-08-06T03:37:47;10.30;;;7.30;;
35917;SDS011;22011;59.912;30.300;2023-08-06T03:40:16;9.43;;;6.63;;
35917;SDS011;22011;59.912;30.300;2023-08-06T03:42:44;8.45;;;6.65;;
35917;SDS011;22011;59.912;30.300;2023-08-06T03:45:11;13.45;;;6.53;;
35917;SDS011;22011;59.912;30.300;2023-08-06T03:47:41;8.77;;;7.40;;
35917;SDS011;22011;59.912;30.300;2023-08-06T03:50:09;10.25;;;7.35;;
35917;SDS011;22011;59.912;30.300;2023-08-06T03:52:38;10.65;;;7.88;;
35917;SDS011;22011;59.912;30.300;2023-08-06T03:55:06;9.65;;;6.82;;
35917;SDS011;22011;59.912;30.300;2023-08-06T03:57:34;8.43;;;7.35;;
35917;SDS011;22011;59.912;30.300;2023-08-06T04:00:01;12.18;;;8.07;;
35917;SDS011;22011;59.912;30.300;2023-08-06T04:02:40;9.75;;;8.75;;
35917;SDS011;22011;59.912;30.300;2023-08-06T04:05:10;11.93;;;8.77;;
35917;SDS011;22011;59.912;30.300;2023-08-06T04:07:39;10.65;;;7.45;;
35917;SDS011;22011;59.912;30.300;2023-08-06T04:10:07;10.70;;;8.50;;
35917;SDS011;22011;59.912;30.300;2023-08-06T04:12:35;10.30;;;7.47;;
35917;SDS011;22011;59.912;30.300;2023-08-06T04:15:05;11.32;;;8.25;;
35917;SDS011;22011;59.912;30.300;2023-08-06T04:17:34;9.02;;;6.72;;
35917;SDS011;22011;59.912;30.300;2023-08-06T04:20:02;9.27;;;6.80;;
35917;SDS011;22011;59.912;30.300;2023-08-06T04:22:30;10.63;;;6.53;;
35917;SDS011;22011;59.912;30.300;2023-08-06T04:24:59;9.10;;;7.13;;
35917;SDS011;22011;59.912;30.300;2023-08-06T04:27:26;11.07;;;7.47;;
35917;SDS011;22011;59.912;30.300;2023-08-06T04:29:55;10.60;;;6.55;;
35917;SDS011;22011;59.912;30.300;2023-08-06T04:32:22;7.30;;;5.95;;
35917;SDS011;22011;59.912;30.300;2023-08-06T04:34:55;10.18;;;5.57;;
35917;SDS011;22011;59.912;30.300;2023-08-06T04:37:23;5.43;;;4.43;;
35917;SDS011;22011;59.912;30.300;2023-08-06T04:39:51;5.57;;;4.38;;
35917;SDS011;22011;59.912;30.300;2023-08-06T04:42:20;8.13;;;3.85;;
35917;SDS011;22011;59.912;30.300;2023-08-06T04:44:48;4.13;;;3.50;;
35917;SDS011;22011;59.912;30.300;2023-08-06T04:47:17;3.67;;;3.08;;
35917;SDS011;22011;59.912;30.300;2023-08-06T04:49:44;2.75;;;2.55;;
35917;SDS011;22011;59.912;30.300;2023-08-06T04:52:12;2.88;;;2.50;;
35917;SDS011;22011;59.912;30.300;2023-08-06T04:54:39;3.05;;;2.50;;
35917;SDS011;22011;59.912;30.300;2023-08-06T04:57:07;2.60;;;2.40;;
35917;SDS011;22011;59.912;30.300;2023-08-06T04:59:36;2.58;;;2.08;;
35917;SDS011;22011;59.912;30.300;2023-08-06T05:02:04;2.55;;;2.35;;
35917;SDS011;22011;59.912;30.300;2023-08-06T05:04:31;2.83;;;2.00;;
35917;SDS011;22011;59.912;30.300;2023-08-06T05:06:59;2.42;;;1.98;;
35917;SDS011;22011;59.912;30.300;2023-08-06T05:09:27;2.25;;;1.58;;
35917;SDS011;22011;59.912;30.300;2023-08-06T05:11:54;2.58;;;1.67;;
35917;SDS011;22011;59.912;30.300;2023-08-06T05:14:22;2.10;;;1.90;;
35917;SDS011;22011;59.912;30.300;2023-08-06T05:16:51;1.98;;;1.83;;
35917;SDS011;22011;59.912;30.300;2023-08-06T05:19:18;1.63;;;1.52;;
35917;SDS011;22011;59.912;30.300;2023-08-06T05:21:46;1.88;;;1.60;;
35917;SDS011;22011;59.912;30.300;2023-08-06T05:24:14;2.17;;;1.98;;
35917;SDS011;22011;59.912;30.300;2023-08-06T05:26:41;2.08;;;1.88;;
35917;SDS011;22011;59.912;30.300;2023-08-06T05:29:12;2.28;;;1.90;;
35917;SDS011;22011;59.912;30.300;2023-08-06T05:31:39;2.33;;;2.13;;
35917;SDS011;22011;59.912;30.300;2023-08-06T05:34:08;3.58;;;2.08;;
35917;SDS011;22011;59.912;30.300;2023-08-06T05:36:36;2.50;;;1.87;;
35917;SDS011;22011;59.912;30.300;2023-08-06T05:39:04;2.65;;;1.67;;
35917;SDS011;22011;59.912;30.300;2023-08-06T05:41:31;4.03;;;2.20;;
35917;SDS011;22011;59.912;30.300;2023-08-06T05:43:59;2.08;;;1.60;;
35917;SDS011;22011;59.912;30.300;2023-08-06T05:46:26;3.05;;;1.90;;
35917;SDS011;22011;59.912;30.300;2023-08-06T05:48:54;2.03;;;1.85;;
35917;SDS011;22011;59.912;30.300;2023-08-06T05:51:23;5.38;;;2.30;;
35917;SDS011;22011;59.912;30.300;2023-08-06T05:53:50;2.47;;;1.85;;
35917;SDS011;22011;59.912;30.300;2023-08-06T05:56:18;2.63;;;2.15;;
35917;SDS011;22011;59.912;30.300;2023-08-06T05:58:46;2.83;;;2.30;;
35917;SDS011;22011;59.912;30.300;2023-08-06T06:01:13;5.85;;;2.08;;
35917;SDS011;22011;59.912;30.300;2023-08-06T06:03:41;4.32;;;2.25;;
35917;SDS011;22011;59.912;30.300;2023-08-06T06:06:08;2.53;;;2.13;;
35917;SDS011;22011;59.912;30.300;2023-08-06T06:08:37;3.47;;;2.30;;
35917;SDS011;22011;59.912;30.300;2023-08-06T06:11:05;3.33;;;2.20;;
35917;SDS011;22011;59.912;30.300;2023-08-06T06:13:32;4.13;;;2.20;;
35917;SDS011;22011;59.912;30.300;2023-08-06T06:16:00;3.15;;;1.90;;
35917;SDS011;22011;59.912;30.300;2023-08-06T06:18:28;2.15;;;2.00;;
35917;SDS011;22011;59.912;30.300;2023-08-06T06:20:55;2.50;;;2.30;;
35917;SDS011;22011;59.912;30.300;2023-08-06T06:23:23;2.20;;;1.73;;
35917;SDS011;22011;59.912;30.300;2023-08-06T06:25:52;2.22;;;2.03;;
35917;SDS011;22011;59.912;30.300;2023-08-06T06:28:19;2.50;;;2.30;;
35917;SDS011;22011;59.912;30.300;2023-08-06T06:30:47;2.85;;;2.30;;
35917;SDS011;22011;59.912;30.300;2023-08-06T06:33:15;2.30;;;2.00;;
35917;SDS011;22011;59.912;30.300;2023-08-06T06:35:43;4.38;;;2.30;;
35917;SDS011;22011;59.912;30.300;2023-08-06T06:38:11;2.97;;;2.05;;
35917;SDS011;22011;59.912;30.300;2023-08-06T06:40:38;3.17;;;2.30;;
35917;SDS011;22011;59.912;30.300;2023-08-06T06:43:07;3.67;;;2.58;;
35917;SDS011;22011;59.912;30.300;2023-08-06T06:45:35;2.03;;;1.77;;
35917;SDS011;22011;59.912;30.300;2023-08-06T06:48:02;3.97;;;1.98;;
35917;SDS011;22011;59.912;30.300;2023-08-06T06:50:30;2.00;;;1.90;;
35917;SDS011;22011;59.912;30.300;2023-08-06T06:52:58;2.85;;;2.08;;
35917;SDS011;22011;59.912;30.300;2023-08-06T06:55:25;1.90;;;1.75;;
35917;SDS011;22011;59.912;30.300;2023-08-06T06:57:53;1.83;;;1.73;;
35917;SDS011;22011;59.912;30.300;2023-08-06T07:00:22;2.53;;;1.70;;
35917;SDS011;22011;59.912;30.300;2023-08-06T07:02:50;2.00;;;1.80;;
35917;SDS011;22011;59.912;30.300;2023-08-06T07:05:18;2.00;;;1.77;;
35917;SDS011;22011;59.912;30.300;2023-08-06T07:07:46;2.63;;;1.85;;
35917;SDS011;22011;59.912;30.300;2023-08-06T07:10:13;1.50;;;1.40;;
35917;SDS011;22011;59.912;30.300;2023-08-06T07:12:41;1.50;;;1.33;;
35917;SDS011;22011;59.912;30.300;2023-08-06T07:15:09;1.95;;;1.77;;
35917;SDS011;22011;59.912;30.300;2023-08-06T07:17:38;2.80;;;1.83;;
35917;SDS011;22011;59.912;30.300;2023-08-06T07:20:06;1.55;;;1.45;;
35917;SDS011;22011;59.912;30.300;2023-08-06T07:22:34;1.95;;;1.80;;
35917;SDS011;22011;59.912;30.300;2023-08-06T07:25:02;2.30;;;1.60;;
35917;SDS011;22011;59.912;30.300;2023-08-06T07:27:30;2.20;;;2.00;;
35917;SDS011;22011;59.912;30.300;2023-08-06T07:29:59;6.32;;;2.13;;
35917;SDS011;22011;59.912;30.300;2023-08-06T07:32:26;1.95;;;1.83;;
35917;SDS011;22011;59.912;30.300;2023-08-06T07:34:55;2.88;;;1.63;;
35917;SDS011;22011;59.912;30.300;2023-08-06T07:37:26;4.70;;;1.80;;
35917;SDS011;22011;59.912;30.300;2023-08-06T07:39:54;1.73;;;1.60;;
35917;SDS011;22011;59.912;30.300;2023-08-06T07:42:22;2.05;;;1.50;;
35917;SDS011;22011;59.912;30.300;2023-08-06T07:44:51;2.25;;;1.55;;
35917;SDS011;22011;59.912;30.300;2023-08-06T07:47:19;3.97;;;2.25;;
35917;SDS011;22011;59.912;30.300;2023-08-06T07:49:47;2.97;;;1.63;;
35917;SDS011;22011;59.912;30.300;2023-08-06T07:52:16;3.33;;;1.55;;
35917;SDS011;22011;59.912;30.300;2023-08-06T07:54:43;6.18;;;2.00;;
35917;SDS011;22011;59.912;30.300;2023-08-06T07:57:11;2.65;;;2.13;;
35917;SDS011;22011;59.912;30.300;2023-08-06T07:59:40;2.75;;;1.65;;
35917;SDS011;22011;59.912;30.300;2023-08-06T08:02:08;2.30;;;1.75;;
35917;SDS011;22011;59.912;30.300;2023-08-06T08:04:35;2.85;;;2.20;;
35917;SDS011;22011;59.912;30.300;2023-08-06T08:07:03;3.03;;;1.90;;
35917;SDS011;22011;59.912;30.300;2023-08-06T08:09:32;3.65;;;1.88;;
35917;SDS011;22011;59.912;30.300;2023-08-06T08:12:01;3.78;;;1.83;;
35917;SDS011;22011;59.912;30.300;2023-08-06T08:14:29;2.17;;;1.98;;
35917;SDS011;22011;59.912;30.300;2023-08-06T08:17:01;4.32;;;2.20;;
35917;SDS011;22011;59.912;30.300;2023-08-06T08:19:29;2.13;;;1.92;;
35917;SDS011;22011;59.912;30.300;2023-08-06T08:21:57;1.77;;;1.40;;
35917;SDS011;22011;59.912;30.300;2023-08-06T08:24:25;2.22;;;1.92;;
35917;SDS011;22011;59.912;30.300;2023-08-06T08:26:54;2.45;;;1.92;;
35917;SDS011;22011;59.912;30.300;2023-08-06T08:29:22;3.63;;;2.35;;
35917;SDS011;22011;59.912;30.300;2023-08-06T08:31:49;2.13;;;1.92;;
35917;SDS011;22011;59.912;30.300;2023-08-06T08:34:17;2.30;;;1.98;;
35917;SDS011;22011;59.912;30.300;2023-08-06T08:36:45;4.22;;;2.65;;
35917;SDS011;22011;59.912;30.300;2023-08-06T08:39:13;4.13;;;2.08;;
35917;SDS011;22011;59.912;30.300;2023-08-06T08:41:40;2.67;;;1.90;;
35917;SDS011;22011;59.912;30.300;2023-08-06T08:44:10;2.13;;;1.90;;
35917;SDS011;22011;59.912;30.300;2023-08-06T08:46:40;2.67;;;1.85;;
35917;SDS011;22011;59.912;30.300;2023-08-06T08:49:08;3.63;;;2.00;;
35917;SDS011;22011;59.912;30.300;2023-08-06T08:51:37;2.50;;;2.08;;
35917;SDS011;22011;59.912;30.300;2023-08-06T08:54:05;3.42;;;2.17;;
35917;SDS011;22011;59.912;30.300;2023-08-06T08:56:35;2.63;;;2.17;;
35917;SDS011;22011;59.912;30.300;2023-08-06T08:59:02;3.03;;;2.33;;
35917;SDS011;22011;59.912;30.300;2023-08-06T09:01:31;2.88;;;2.63;;
35917;SDS011;22011;59.912;30.300;2023-08-06T09:04:00;3.65;;;3.05;;
35917;SDS011;22011;59.912;30.300;2023-08-06T09:06:29;3.37;;;2.70;;
35917;SDS011;22011;59.912;30.300;2023-08-06T09:09:01;4.95;;;2.58;;
35917;SDS011;22011;59.912;30.300;2023-08-06T09:11:34;3.75;;;2.50;;
35917;SDS011;22011;59.912;30.300;2023-08-06T09:14:06;2.38;;;2.13;;
35917;SDS011;22011;59.912;30.300;2023-08-06T09:16:36;4.95;;;2.50;;
35917;SDS011;22011;59.912;30.300;2023-08-06T09:19:07;4.43;;;2.42;;
35917;SDS011;22011;59.912;30.300;2023-08-06T09:21:36;4.45;;;2.92;;
35917;SDS011;22011;59.912;30.300;2023-08-06T09:24:08;3.00;;;2.40;;
35917;SDS011;22011;59.912;30.300;2023-08-06T09:26:36;2.20;;;2.00;;
35917;SDS011;22011;59.912;30.300;2023-08-06T09:29:05;4.35;;;2.17;;
35917;SDS011;22011;59.912;30.300;2023-08-06T09:31:33;2.83;;;1.73;;
35917;SDS011;22011;59.912;30.300;2023-08-06T09:34:14;5.30;;;2.00;;
35917;SDS011;22011;59.912;30.300;2023-08-06T09:36:43;5.45;;;2.70;;
35917;SDS011;22011;59.912;30.300;2023-08-06T09:39:14;4.70;;;2.55;;
35917;SDS011;22011;59.912;30.300;2023-08-06T09:41:42;4.60;;;2.73;;
35917;SDS011;22011;59.912;30.300;2023-08-06T09:44:17;4.63;;;2.88;;
35917;SDS011;22011;59.912;30.300;2023-08-06T09:46:49;5.20;;;2.70;;
35917;SDS011;22011;59.912;30.300;2023-08-06T09:49:19;3.08;;;2.78;;
35917;SDS011;22011;59.912;30.300;2023-08-06T09:51:47;5.20;;;2.83;;
35917;SDS011;22011;59.912;30.300;2023-08-06T09:54:17;5.28;;;2.90;;
35917;SDS011;22011;59.912;30.300;2023-08-06T09:56:44;3.58;;;2.63;;
35917;SDS011;22011;59.912;30.300;2023-08-06T09:59:12;2.70;;;2.08;;
35917;SDS011;22011;59.912;30.300;2023-08-06T10:01:41;4.47;;;2.92;;
35917;SDS011;22011;59.912;30.300;2023-08-06T10:04:10;2.70;;;2.50;;
35917;SDS011;22011;59.912;30.300;2023-08-06T10:06:42;4.80;;;2.38;;
35917;SDS011;22011;59.912;30.300;2023-08-06T10:09:10;5.35;;;2.35;;
35917;SDS011;22011;59.912;30.300;2023-08-06T10:11:38;4.05;;;2.90;;
35917;SDS011;22011;59.912;30.300;2023-08-06T10:14:06;11.33;;;2.83;;
35917;SDS011;22011;59.912;30.300;2023-08-06T10:16:37;5.95;;;2.55;;
35917;SDS011;22011;59.912;30.300;2023-08-06T10:19:07;5.28;;;2.65;;
35917;SDS011;22011;59.912;30.300;2023-08-06T10:21:39;6.35;;;2.92;;
35917;SDS011;22011;59.912;30.300;2023-08-06T10:26:35;3.20;;;2.90;;
35917;SDS011;22011;59.912;30.300;2023-08-06T10:32:04;2.92;;;2.55;;
35917;SDS011;22011;59.912;30.300;2023-08-06T10:37:24;5.55;;;2.83;;
35917;SDS011;22011;59.912;30.300;2023-08-06T10:40:01;3.40;;;2.67;;
35917;SDS011;22011;59.912;30.300;2023-08-06T10:42:29;2.83;;;2.53;;
35917;SDS011;22011;59.912;30.300;2023-08-06T10:45:10;3.05;;;2.13;;
35917;SDS011;22011;59.912;30.300;2023-08-06T10:47:39;4.38;;;2.38;;
35917;SDS011;22011;59.912;30.300;2023-08-06T10:50:07;2.55;;;2.30;;
35917;SDS011;22011;59.912;30.300;2023-08-06T10:52:37;3.53;;;2.15;;
35917;SDS011;22011;59.912;30.300;2023-08-06T10:55:05;3.40;;;3.13;;
35917;SDS011;22011;59.912;30.300;2023-08-06T10:57:33;5.00;;;2.83;;
35917;SDS011;22011;59.912;30.300;2023-08-06T11:00:00;3.65;;;2.83;;
35917;SDS011;22011;59.912;30.300;2023-08-06T11:02:28;4.05;;;2.50;;
35917;SDS011;22011;59.912;30.300;2023-08-06T11:05:04;3.72;;;2.63;;
35917;SDS011;22011;59.912;30.300;2023-08-06T11:07:33;2.75;;;2.38;;
35917;SDS011;22011;59.912;30.300;2023-08-06T11:10:03;2.60;;;2.40;;
35917;SDS011;22011;59.912;30.300;2023-08-06T11:12:31;5.88;;;2.90;;
35917;SDS011;22011;59.912;30.300;2023-08-06T11:14:59;3.85;;;2.63;;
35917;SDS011;22011;59.912;30.300;2023-08-06T11:17:27;3.63;;;2.78;;
35917;SDS011;22011;59.912;30.300;2023-08-06T11:19:56;4.93;;;3.63;;
35917;SDS011;22011;59.912;30.300;2023-08-06T11:22:26;3.63;;;2.55;;
35917;SDS011;22011;59.912;30.300;2023-08-06T11:24:54;2.40;;;2.20;;
35917;SDS011;22011;59.912;30.300;2023-08-06T11:27:25;2.78;;;2.47;;
35917;SDS011;22011;59.912;30.300;2023-08-06T11:29:53;3.40;;;2.17;;
35917;SDS011;22011;59.912;30.300;2023-08-06T11:32:21;3.50;;;2.75;;
35917;SDS011;22011;59.912;30.300;2023-08-06T11:34:49;3.35;;;2.63;;
35917;SDS011;22011;59.912;30.300;2023-08-06T11:37:17;2.63;;;2.40;;
35917;SDS011;22011;59.912;30.300;2023-08-06T11:39:48;2.65;;;2.30;;
35917;SDS011;22011;59.912;30.300;2023-08-06T11:42:16;2.90;;;2.60;;
35917;SDS011;22011;59.912;30.300;2023-08-06T11:44:45;3.75;;;2.50;;
35917;SDS011;22011;59.912;30.300;2023-08-06T11:47:14;6.05;;;2.45;;
35917;SDS011;22011;59.912;30.300;2023-08-06T11:49:43;2.53;;;2.33;;
35917;SDS011;22011;59.912;30.300;2023-08-06T11:52:13;2.35;;;2.15;;
35917;SDS011;22011;59.912;30.300;2023-08-06T11:54:45;2.67;;;2.47;;
35917;SDS011;22011;59.912;30.300;2023-08-06T11:57:14;3.35;;;2.63;;
35917;SDS011;22011;59.912;30.300;2023-08-06T11:59:42;2.80;;;2.25;;
35917;SDS011;22011;59.912;30.300;2023-08-06T12:02:11;4.13;;;2.50;;
35917;SDS011;22011;59.912;30.300;2023-08-06T12:04:58;2.63;;;2.38;;
35917;SDS011;22011;59.912;30.300;2023-08-06T12:07:30;3.45;;;2.30;;
35917;SDS011;22011;59.912;30.300;2023-08-06T12:09:59;3.43;;;2.33;;
35917;SDS011;22011;59.912;30.300;2023-08-06T12:12:26;8.07;;;5.15;;
35917;SDS011;22011;59.912;30.300;2023-08-06T12:14:54;3.20;;;2.90;;
35917;SDS011;22011;59.912;30.300;2023-08-06T12:17:24;3.03;;;2.70;;
35917;SDS011;22011;59.912;30.300;2023-08-06T12:19:51;4.95;;;3.13;;
35917;SDS011;22011;59.912;30.300;2023-08-06T12:22:19;2.97;;;2.67;;
35917;SDS011;22011;59.912;30.300;2023-08-06T12:24:47;3.88;;;2.28;;
35917;SDS011;22011;59.912;30.300;2023-08-06T12:27:15;5.20;;;2.75;;
35917;SDS011;22011;59.912;30.300;2023-08-06T12:29:43;3.95;;;2.83;;
35917;SDS011;22011;59.912;30.300;2023-08-06T12:34:41;2.80;;;2.53;;
35917;SDS011;22011;59.912;30.300;2023-08-06T12:37:09;3.88;;;3.20;;
35917;SDS011;22011;59.912;30.300;2023-08-06T12:39:37;3.67;;;3.05;;
35917;SDS011;22011;59.912;30.300;2023-08-06T12:42:05;3.45;;;3.15;;
35917;SDS011;22011;59.912;30.300;2023-08-06T12:44:33;3.38;;;2.70;;
35917;SDS011;22011;59.912;30.300;2023-08-06T12:47:00;3.40;;;3.00;;
35917;SDS011;22011;59.912;30.300;2023-08-06T12:49:28;3.28;;;2.70;;
35917;SDS011;22011;59.912;30.300;2023-08-06T12:51:58;2.70;;;2.38;;
35917;SDS011;22011;59.912;30.300;2023-08-06T12:56:54;2.70;;;2.50;;
35917;SDS011;22011;59.912;30.300;2023-08-06T12:59:22;3.10;;;2.83;;
35917;SDS011;22011;59.912;30.300;2023-08-06T13:01:49;4.22;;;3.08;;
35917;SDS011;22011;59.912;30.300;2023-08-06T13:04:17;3.38;;;3.00;;
35917;SDS011;22011;59.912;30.300;2023-08-06T13:06:44;4.90;;;3.42;;
35917;SDS011;22011;59.912;30.300;2023-08-06T13:09:14;4.20;;;3.00;;
35917;SDS011;22011;59.912;30.300;2023-08-06T13:11:42;4.00;;;2.97;;
35917;SDS011;22011;59.912;30.300;2023-08-06T13:14:12;4.82;;;3.40;;
35917;SDS011;22011;59.912;30.300;2023-08-06T13:16:42;4.47;;;2.92;;
35917;SDS011;22011;59.912;30.300;2023-08-06T13:21:58;5.85;;;3.42;;
35917;SDS011;22011;59.912;30.300;2023-08-06T13:24:28;3.47;;;3.15;;
35917;SDS011;22011;59.912;30.300;2023-08-06T13:26:56;5.40;;;3.47;;
35917;SDS011;22011;59.912;30.300;2023-08-06T13:29:24;4.63;;;3.25;;
35917;SDS011;22011;59.912;30.300;2023-08-06T13:31:52;4.27;;;3.30;;
35917;SDS011;22011;59.912;30.300;2023-08-06T13:34:20;3.60;;;3.30;;
35917;SDS011;22011;59.912;30.300;2023-08-06T13:36:47;4.38;;;3.33;;
35917;SDS011;22011;59.912;30.300;2023-08-06T13:39:15;4.18;;;3.80;;
35917;SDS011;22011;59.912;30.300;2023-08-06T13:41:44;3.85;;;3.20;;
35917;SDS011;22011;59.912;30.300;2023-08-06T13:44:12;3.80;;;3.17;;
35917;SDS011;22011;59.912;30.300;2023-08-06T13:46:41;3.65;;;2.92;;
35917;SDS011;22011;59.912;30.300;2023-08-06T13:49:09;7.03;;;3.77;;
35917;SDS011;22011;59.912;30.300;2023-08-06T13:51:37;3.25;;;2.95;;
35917;SDS011;22011;59.912;30.300;2023-08-06T13:54:05;3.65;;;3.10;;
35917;SDS011;22011;59.912;30.300;2023-08-06T13:56:34;5.68;;;3.40;;
35917;SDS011;22011;59.912;30.300;2023-08-06T13:59:05;3.85;;;3.50;;
35917;SDS011;22011;59.912;30.300;2023-08-06T14:01:32;3.58;;;2.92;;
35917;SDS011;22011;59.912;30.300;2023-08-06T14:04:00;3.67;;;3.25;;
35917;SDS011;22011;59.912;30.300;2023-08-06T14:06:27;3.65;;;3.35;;
35917;SDS011;22011;59.912;30.300;2023-08-06T14:08:56;3.58;;;3.28;;
35917;SDS011;22011;59.912;30.300;2023-08-06T14:11:23;3.55;;;3.22;;
35917;SDS011;22011;59.912;30.300;2023-08-06T14:13:51;5.90;;;4.00;;
35917;SDS011;22011;59.912;30.300;2023-08-06T14:16:20;8.98;;;3.75;;
35917;SDS011;22011;59.912;30.300;2023-08-06T14:18:48;4.38;;;3.95;;
35917;SDS011;22011;59.912;30.300;2023-08-06T14:21:15;4.38;;;4.00;;
35917;SDS011;22011;59.912;30.300;2023-08-06T14:23:43;4.63;;;4.00;;
35917;SDS011;22011;59.912;30.300;2023-08-06T14:26:11;6.55;;;3.85;;
35917;SDS011;22011;59.912;30.300;2023-08-06T14:28:41;4.10;;;3.70;;
35917;SDS011;22011;59.912;30.300;2023-08-06T14:31:08;7.28;;;3.78;;
35917;SDS011;22011;59.912;30.300;2023-08-06T14:33:39;4.45;;;3.63;;
35917;SDS011;22011;59.912;30.300;2023-08-06T14:36:07;5.57;;;3.70;;
35917;SDS011;22011;59.912;30.300;2023-08-06T14:38:34;6.50;;;3.80;;
35917;SDS011;22011;59.912;30.300;2023-08-06T14:41:02;3.60;;;3.28;;
35917;SDS011;22011;59.912;30.300;2023-08-06T14:43:29;6.28;;;3.72;;
35917;SDS011;22011;59.912;30.300;2023-08-06T14:45:57;3.38;;;3.13;;
35917;SDS011;22011;59.912;30.300;2023-08-06T14:48:24;5.68;;;4.25;;
35917;SDS011;22011;59.912;30.300;2023-08-06T14:50:53;9.93;;;3.22;;
35917;SDS011;22011;59.912;30.300;2023-08-06T14:53:21;4.10;;;3.70;;
35917;SDS011;22011;59.912;30.300;2023-08-06T14:55:49;4.25;;;3.92;;